Startpagina
METAR-TAF:

METAR-TAF

Vliegvelden :

Keulen, Duitsland

Flughafen Köln-Bonn

breedte: 50-52N, lengte: 007-10E, hoogte: 91 m

Actueel weer

Dit bericht is 27 minuten geleden gemaakt, om 18:50 UTC
Wind 5 kt uit het oostzuidoosten
Temperatuur 21°C
Vochtigheid 46%
Druk 1016 hPa
Zicht 10 km of meer
geen wolken onder 1500 m en geen cumulonimbus

METAR: EDDK 221850Z 12005KT CAVOK 21/09 Q1016 NOSIG

Tijdstip: 21:17 (19:17 UTC)

Verwachting

Dit bericht is 2 uur en het 17 minuten geleden gemaakt, om 17:00 UTC
Verwachting geldig van 22 om 18 UTC tot 23 om 24 UTC
Wind 5 kt uit het zuidoosten
Zicht 10 km of meer
geen wolken onder 1500 m en geen cumulonimbus
Wijzigt naar
van 23 om 06 UTC tot 23 om 08 UTC
Wind 6 kt uit het zuidwesten
Wijzigt naar
van 23 om 08 UTC tot 23 om 11 UTC
Wind 10 kt uit het westnoordwesten

TAF: EDDK 221700Z 2218/2324 13005KT CAVOK BECMG 2306/2308 23006KT BECMG 2308/2311 29010KT

Waarnemingen en weersverwachtingen van meer dan 4000 vliegvelden (METAR en TAF).

De beschikbare stations zijn de gele en rode punten op de kaart.

Ga met uw muis naar het station om de naam te zien.

Klik dan om waarnemingen en weersverwachtingen te zien.

kaart wijzigen: klik op de groene knoppen met een zwart kruis om in te zoomen, op de groene knop met een streepje om uit te zoomen of op de groene pijlen voor aangrenzende kaarten.


METAR-TAF: